Katerina L — 3FQL2 — position and weather

sailwx.info

Track history (hours):
 
Tides and Currents Weather Stations Pressure Air Temp Water Temp Dewpoint Dewpoint Depression Visibility Wind Speed Wind Dir Waves Ship Positions

Katerina L

Last reported at 2014-Dec-19 18:09 UTC. Time now 2014-Dec-20 00:09 UTC.
Position N 34°24' E 033°09'.

Length 91 m; draft 5.4 m.

Type: Tanker. MMSI: 356460000.

Date/timePositionNaut miles runAvg speedWind from/ knotsBaromVisibWave heightAir tempDewpointWater temp
2014-Dec-19 18:09N 34°24' E 033°09'5 8.8
2014-Dec-19 17:33N 34°26' E 033°03'9 8.9
2014-Dec-19 16:33N 34°29' E 032°52'9 8.9
2014-Dec-19 15:33N 34°32' E 032°42'19 9.0
2014-Dec-19 13:28N 34°39' E 032°21'305 7.8
2014-Dec-17 22:09N 36°44' E 026°38'4 6.5
2014-Dec-17 21:33N 36°46' E 026°34'6 6.0
2014-Dec-17 20:31N 36°50' E 026°28'8 6.4
2014-Dec-17 19:12N 36°54' E 026°19'5 6.7
2014-Dec-17 18:27N 36°57' E 026°14'6 6.5
2014-Dec-17 17:33N 37°01' E 026°08'7 7.5
2014-Dec-17 16:33N 37°05' E 026°00'8 7.8
2014-Dec-17 15:33N 37°10' E 025°52'8 7.7
2014-Dec-17 14:34N 37°14' E 025°45'8 8.0
2014-Dec-17 13:33N 37°16' E 025°35'8 7.6
2014-Dec-17 12:33N 37°18' E 025°25'7 7.2
2014-Dec-17 11:33N 37°20' E 025°17'7 7.1
2014-Dec-17 10:33N 37°22' E 025°08'7 7.1
2014-Dec-17 09:33N 37°25' E 025°00'2 1.9
2014-Dec-17 08:32N 37°25' E 024°58'0 0.0
2014-Dec-17 07:32N 37°25' E 024°58'1 0.9
2014-Dec-17 06:33N 37°25' E 024°59'0 0.1
2014-Dec-17 05:22N 37°25' E 024°59'4 5.3
2014-Dec-17 04:33N 37°29' E 024°60'39 7.4
2014-Dec-16 23:18N 37°31' E 024°10'4 5.8
2014-Dec-16 22:33N 37°33' E 024°06'16 7.5
2014-Dec-16 20:25N 37°38' E 023°47'6 7.2
2014-Dec-16 19:33N 37°43' E 023°41'8 7.6
2014-Dec-16 18:33N 37°49' E 023°37'7 7.3
2014-Dec-16 17:33N 37°57' E 023°36'5 0.8
2014-Dec-16 11:26N 38°02' E 023°36'0 0.0
2014-Dec-16 10:32N 38°02' E 023°36'0 0.0
2014-Dec-16 09:32N 38°02' E 023°36'0 0.0
2014-Dec-16 08:26N 38°02' E 023°36'0 0.0
2014-Dec-16 07:32N 38°02' E 023°36'0 0.0
2014-Dec-16 06:29N 38°02' E 023°36'0 0.0
2014-Dec-16 05:29N 38°02' E 023°36'0 0.0
2014-Dec-16 04:30N 38°02' E 023°36'0 0.0
2014-Dec-16 03:32N 38°02' E 023°36'0 0.0
2014-Dec-16 02:32N 38°02' E 023°36'0 0.0
2014-Dec-16 01:05N 38°02' E 023°36'0 0.0
2014-Dec-16 00:31N 38°02' E 023°36'0 0.0
2014-Dec-15 23:20N 38°02' E 023°36'0 0.0
2014-Dec-15 22:32N 38°02' E 023°36'0 0.0
2014-Dec-15 21:32N 38°02' E 023°36'0 0.0
2014-Dec-15 20:32N 38°02' E 023°36'0 0.0
2014-Dec-15 19:32N 38°02' E 023°36'0 0.0
2014-Dec-15 18:32N 38°02' E 023°36'0 0.0
2014-Dec-15 17:32N 38°02' E 023°36'0 0.0
2014-Dec-15 16:32N 38°02' E 023°36'0 0.0
2014-Dec-15 15:33N 38°02' E 023°36'3 2.6
2014-Dec-15 14:33N 38°01' E 023°32'0 0.0
2014-Dec-15 13:33N 38°01' E 023°32'0 0.0
2014-Dec-15 12:33N 38°01' E 023°32'0 0.0
2014-Dec-15 11:33N 38°01' E 023°32'0 0.0
2014-Dec-15 10:33N 38°01' E 023°32'0 0.0
2014-Dec-15 09:33N 38°01' E 023°32'0 0.0
2014-Dec-15 08:33N 38°01' E 023°32'6 6.5
2014-Dec-15 07:33N 37°55' E 023°36'2 1.9
2014-Dec-15 06:33N 37°54' E 023°37'7 7.1
2014-Dec-15 05:33N 37°47' E 023°41'8 8.5
2014-Dec-15 04:33N 37°40' E 023°46'8 8.4
2014-Dec-15 03:33N 37°35' E 023°55'1 1.4
2014-Dec-15 02:32N 37°35' E 023°53'8 8.3
2014-Dec-15 01:32N 37°35' E 023°42'0 0.2
2014-Dec-15 00:32N 37°35' E 023°43'9 8.8
2014-Dec-14 23:29N 37°34' E 023°54'10 8.5
2014-Dec-14 22:19N 37°32' E 024°07'7 8.8
2014-Dec-14 21:33N 37°30' E 024°14'13 8.8
2014-Dec-14 20:05N 37°31' E 024°31'5 8.5
2014-Dec-14 19:33N 37°28' E 024°36'8 8.5
2014-Dec-14 18:33N 37°23' E 024°44'9 8.8
2014-Dec-14 17:33N 37°19' E 024°54'9 9.4
2014-Dec-14 16:33N 37°18' E 025°06'9 9.5
2014-Dec-14 15:33N 37°17' E 025°17'9 9.1
2014-Dec-14 14:33N 37°15' E 025°29'8 8.4
2014-Dec-14 13:33N 37°14' E 025°39'7 7.4
2014-Dec-14 12:33N 37°12' E 025°48'7 7.2
2014-Dec-14 11:33N 37°08' E 025°55'7 7.5
2014-Dec-14 10:33N 37°03' E 026°03'8 7.8
2014-Dec-14 09:33N 36°59' E 026°11'19 8.5
2014-Dec-14 07:21N 36°49' E 026°31'7 8.3
2014-Dec-14 06:31N 36°45' E 026°38'310 8.2
2014-Dec-12 16:32N 34°37' E 032°26'6 5.9
2014-Dec-12 15:31N 34°36' E 032°33'6 6.5
2014-Dec-12 14:33N 34°34' E 032°40'7 6.8
2014-Dec-12 13:33N 34°32' E 032°48'7 6.9
2014-Dec-12 12:33N 34°30' E 032°56'7 6.5
2014-Dec-12 11:33N 34°31' E 033°04'8 7.6
2014-Dec-12 10:33N 34°35' E 033°12'9 8.7
2014-Dec-12 09:33N 34°39' E 033°22'9 8.7
2014-Dec-12 08:28N 34°44' E 033°32'  
2014-Dec-10 02:19N 34°42' E 033°27'5 1.8
2014-Dec-09 23:29N 34°39' E 033°22'7 7.9
2014-Dec-09 22:34N 34°35' E 033°15'4 4.1
2014-Dec-09 21:33N 34°38' E 033°19'0 0.2
2014-Dec-09 20:33N 34°38' E 033°19'9 8.4
2014-Dec-09 19:31N 34°33' E 033°09'8 8.7
2014-Dec-09 18:34N 34°29' E 033°00'  
Track history (hours):
 
Tides and Currents Weather Stations Pressure Air Temp Water Temp Dewpoint Dewpoint Depression Visibility Wind Speed Wind Dir Waves Ship Positions

Katerina L

Last reported at 2014-Dec-19 18:09 UTC. Time now 2014-Dec-20 00:09 UTC.
Position N 34°24' E 033°09'.

Length 91 m; draft 5.4 m.

Type: Tanker. MMSI: 356460000.

Date/timePositionNaut miles runAvg speedWind from/ knotsBaromVisibWave heightAir tempDewpointWater temp
2014-Dec-19 18:09N 34°24' E 033°09'5 8.8
2014-Dec-19 17:33N 34°26' E 033°03'9 8.9
2014-Dec-19 16:33N 34°29' E 032°52'9 8.9
2014-Dec-19 15:33N 34°32' E 032°42'19 9.0
2014-Dec-19 13:28N 34°39' E 032°21'305 7.8
2014-Dec-17 22:09N 36°44' E 026°38'4 6.5
2014-Dec-17 21:33N 36°46' E 026°34'6 6.0
2014-Dec-17 20:31N 36°50' E 026°28'8 6.4
2014-Dec-17 19:12N 36°54' E 026°19'5 6.7
2014-Dec-17 18:27N 36°57' E 026°14'6 6.5
2014-Dec-17 17:33N 37°01' E 026°08'7 7.5
2014-Dec-17 16:33N 37°05' E 026°00'8 7.8
2014-Dec-17 15:33N 37°10' E 025°52'8 7.7
2014-Dec-17 14:34N 37°14' E 025°45'8 8.0
2014-Dec-17 13:33N 37°16' E 025°35'8 7.6
2014-Dec-17 12:33N 37°18' E 025°25'7 7.2
2014-Dec-17 11:33N 37°20' E 025°17'7 7.1
2014-Dec-17 10:33N 37°22' E 025°08'7 7.1
2014-Dec-17 09:33N 37°25' E 025°00'2 1.9
2014-Dec-17 08:32N 37°25' E 024°58'0 0.0
2014-Dec-17 07:32N 37°25' E 024°58'1 0.9
2014-Dec-17 06:33N 37°25' E 024°59'0 0.1
2014-Dec-17 05:22N 37°25' E 024°59'4 5.3
2014-Dec-17 04:33N 37°29' E 024°60'39 7.4
2014-Dec-16 23:18N 37°31' E 024°10'4 5.8
2014-Dec-16 22:33N 37°33' E 024°06'16 7.5
2014-Dec-16 20:25N 37°38' E 023°47'6 7.2
2014-Dec-16 19:33N 37°43' E 023°41'8 7.6
2014-Dec-16 18:33N 37°49' E 023°37'7 7.3
2014-Dec-16 17:33N 37°57' E 023°36'5 0.8
2014-Dec-16 11:26N 38°02' E 023°36'0 0.0
2014-Dec-16 10:32N 38°02' E 023°36'0 0.0
2014-Dec-16 09:32N 38°02' E 023°36'0 0.0
2014-Dec-16 08:26N 38°02' E 023°36'0 0.0
2014-Dec-16 07:32N 38°02' E 023°36'0 0.0
2014-Dec-16 06:29N 38°02' E 023°36'0 0.0
2014-Dec-16 05:29N 38°02' E 023°36'0 0.0
2014-Dec-16 04:30N 38°02' E 023°36'0 0.0
2014-Dec-16 03:32N 38°02' E 023°36'0 0.0
2014-Dec-16 02:32N 38°02' E 023°36'0 0.0
2014-Dec-16 01:05N 38°02' E 023°36'0 0.0
2014-Dec-16 00:31N 38°02' E 023°36'0 0.0
2014-Dec-15 23:20N 38°02' E 023°36'0 0.0
2014-Dec-15 22:32N 38°02' E 023°36'0 0.0
2014-Dec-15 21:32N 38°02' E 023°36'0 0.0
2014-Dec-15 20:32N 38°02' E 023°36'0 0.0
2014-Dec-15 19:32N 38°02' E 023°36'0 0.0
2014-Dec-15 18:32N 38°02' E 023°36'0 0.0
2014-Dec-15 17:32N 38°02' E 023°36'0 0.0
2014-Dec-15 16:32N 38°02' E 023°36'0 0.0
2014-Dec-15 15:33N 38°02' E 023°36'3 2.6
2014-Dec-15 14:33N 38°01' E 023°32'0 0.0
2014-Dec-15 13:33N 38°01' E 023°32'0 0.0
2014-Dec-15 12:33N 38°01' E 023°32'0 0.0
2014-Dec-15 11:33N 38°01' E 023°32'0 0.0
2014-Dec-15 10:33N 38°01' E 023°32'0 0.0
2014-Dec-15 09:33N 38°01' E 023°32'0 0.0
2014-Dec-15 08:33N 38°01' E 023°32'6 6.5
2014-Dec-15 07:33N 37°55' E 023°36'2 1.9
2014-Dec-15 06:33N 37°54' E 023°37'7 7.1
2014-Dec-15 05:33N 37°47' E 023°41'8 8.5
2014-Dec-15 04:33N 37°40' E 023°46'8 8.4
2014-Dec-15 03:33N 37°35' E 023°55'1 1.4
2014-Dec-15 02:32N 37°35' E 023°53'8 8.3
2014-Dec-15 01:32N 37°35' E 023°42'0 0.2
2014-Dec-15 00:32N 37°35' E 023°43'9 8.8
2014-Dec-14 23:29N 37°34' E 023°54'10 8.5
2014-Dec-14 22:19N 37°32' E 024°07'7 8.8
2014-Dec-14 21:33N 37°30' E 024°14'13 8.8
2014-Dec-14 20:05N 37°31' E 024°31'5 8.5
2014-Dec-14 19:33N 37°28' E 024°36'8 8.5
2014-Dec-14 18:33N 37°23' E 024°44'9 8.8
2014-Dec-14 17:33N 37°19' E 024°54'9 9.4
2014-Dec-14 16:33N 37°18' E 025°06'9 9.5
2014-Dec-14 15:33N 37°17' E 025°17'9 9.1
2014-Dec-14 14:33N 37°15' E 025°29'8 8.4
2014-Dec-14 13:33N 37°14' E 025°39'7 7.4
2014-Dec-14 12:33N 37°12' E 025°48'7 7.2
2014-Dec-14 11:33N 37°08' E 025°55'7 7.5
2014-Dec-14 10:33N 37°03' E 026°03'8 7.8
2014-Dec-14 09:33N 36°59' E 026°11'19 8.5
2014-Dec-14 07:21N 36°49' E 026°31'7 8.3
2014-Dec-14 06:31N 36°45' E 026°38'310 8.2
2014-Dec-12 16:32N 34°37' E 032°26'6 5.9
2014-Dec-12 15:31N 34°36' E 032°33'6 6.5
2014-Dec-12 14:33N 34°34' E 032°40'7 6.8
2014-Dec-12 13:33N 34°32' E 032°48'7 6.9
2014-Dec-12 12:33N 34°30' E 032°56'7 6.5
2014-Dec-12 11:33N 34°31' E 033°04'8 7.6
2014-Dec-12 10:33N 34°35' E 033°12'9 8.7
2014-Dec-12 09:33N 34°39' E 033°22'9 8.7
2014-Dec-12 08:28N 34°44' E 033°32'  
2014-Dec-10 02:19N 34°42' E 033°27'5 1.8
2014-Dec-09 23:29N 34°39' E 033°22'7 7.9
2014-Dec-09 22:34N 34°35' E 033°15'4 4.1
2014-Dec-09 21:33N 34°38' E 033°19'0 0.2
2014-Dec-09 20:33N 34°38' E 033°19'9 8.4
2014-Dec-09 19:31N 34°33' E 033°09'8 8.7
2014-Dec-09 18:34N 34°29' E 033°00'  

Dump ship's entire track history